createdAt,value
2019-03-29T00:02:24.515Z,7.12
2019-03-29T00:04:52.263Z,8.78
2019-03-29T00:07:20.189Z,7.92
2019-03-29T00:09:47.496Z,8.48
2019-03-29T00:12:14.834Z,8.48
2019-03-29T00:14:42.326Z,9.98
2019-03-29T00:17:09.665Z,10.13
2019-03-29T00:19:36.945Z,7.05
2019-03-29T00:22:04.952Z,8.50
2019-03-29T00:24:32.545Z,6.75
2019-03-29T00:27:00.284Z,6.33
2019-03-29T00:29:27.783Z,8.78
2019-03-29T00:31:55.109Z,7.78
2019-03-29T00:34:22.404Z,6.58
2019-03-29T00:36:49.658Z,7.40
2019-03-29T00:39:16.956Z,8.00
2019-03-29T00:41:44.307Z,8.40
2019-03-29T00:44:11.564Z,8.63
2019-03-29T00:46:38.920Z,7.37
2019-03-29T00:49:06.364Z,9.23
2019-03-29T00:51:33.656Z,8.50
2019-03-29T00:54:01.903Z,10.18
2019-03-29T00:56:29.566Z,9.55
2019-03-29T00:58:56.846Z,8.75
2019-03-29T01:01:24.285Z,11.65
2019-03-29T01:03:51.731Z,8.98
2019-03-29T01:06:19.009Z,10.70
2019-03-29T01:08:46.300Z,12.15
2019-03-29T01:11:14.276Z,12.65
2019-03-29T01:13:42.394Z,10.68
2019-03-29T01:16:09.662Z,9.75
2019-03-29T01:18:37.880Z,10.35
2019-03-29T01:21:05.610Z,11.63
2019-03-29T01:23:32.951Z,12.33
2019-03-29T01:26:01.038Z,11.30
2019-03-29T01:28:28.475Z,9.90
2019-03-29T01:30:55.836Z,10.40
2019-03-29T01:33:23.306Z,10.80
2019-03-29T01:35:50.957Z,12.20
2019-03-29T01:38:22.174Z,11.45
2019-03-29T01:40:47.428Z,13.98
2019-03-29T01:43:14.767Z,12.90
2019-03-29T01:45:42.033Z,11.85
2019-03-29T01:48:09.411Z,9.73
2019-03-29T01:50:36.743Z,12.88
2019-03-29T01:53:04.049Z,10.48
2019-03-29T01:55:31.315Z,11.55
2019-03-29T01:57:59.071Z,14.40
2019-03-29T02:00:27.995Z,9.85
2019-03-29T02:02:55.269Z,10.00
2019-03-29T02:05:22.580Z,10.55
2019-03-29T02:07:49.839Z,9.03
2019-03-29T02:10:17.150Z,10.93
2019-03-29T02:12:44.919Z,11.05
2019-03-29T02:15:12.307Z,12.90
2019-03-29T02:17:39.587Z,12.15
2019-03-29T02:20:07.829Z,11.65
2019-03-29T02:22:35.135Z,11.55
2019-03-29T02:25:02.487Z,11.88
2019-03-29T02:27:29.847Z,11.28
2019-03-29T02:29:57.106Z,9.25
2019-03-29T02:32:25.149Z,13.72
2019-03-29T02:34:52.976Z,11.35
2019-03-29T02:37:20.465Z,9.63
2019-03-29T02:39:47.743Z,9.15
2019-03-29T02:42:15.284Z,9.73
2019-03-29T02:44:42.831Z,12.47
2019-03-29T02:47:10.103Z,11.45
2019-03-29T02:49:37.384Z,9.55
2019-03-29T02:52:04.707Z,9.65
2019-03-29T02:54:32.015Z,9.15
2019-03-29T02:56:59.376Z,10.65
2019-03-29T02:59:26.732Z,10.23
2019-03-29T03:01:54.069Z,9.90
2019-03-29T03:04:21.334Z,8.70
2019-03-29T03:06:48.774Z,8.70
2019-03-29T03:09:16.199Z,13.00
2019-03-29T03:11:43.462Z,9.40
2019-03-29T03:14:10.743Z,13.18
2019-03-29T03:16:38.046Z,11.73
2019-03-29T03:19:05.329Z,9.65
2019-03-29T03:21:32.616Z,10.00
2019-03-29T03:23:59.989Z,12.80
2019-03-29T03:26:27.253Z,10.25
2019-03-29T03:28:54.556Z,9.63
2019-03-29T03:31:21.924Z,10.23
2019-03-29T03:33:49.281Z,10.60
2019-03-29T03:36:16.606Z,13.28
2019-03-29T03:38:43.968Z,11.68
2019-03-29T03:41:11.317Z,11.50
2019-03-29T03:43:38.705Z,10.70
2019-03-29T03:46:06.031Z,10.72
2019-03-29T03:48:33.317Z,10.30
2019-03-29T03:51:00.591Z,10.18
2019-03-29T03:53:27.948Z,10.63
2019-03-29T03:55:56.000Z,9.53
2019-03-29T03:58:23.971Z,10.03
2019-03-29T04:00:52.130Z,12.50
2019-03-29T04:03:19.596Z,11.85
2019-03-29T04:05:47.224Z,11.18
2019-03-29T04:08:14.530Z,12.15
2019-03-29T04:10:42.398Z,14.00
2019-03-29T04:13:09.833Z,11.50
2019-03-29T04:15:37.113Z,9.65
2019-03-29T04:18:04.544Z,9.70
2019-03-29T04:20:31.836Z,10.82
2019-03-29T04:22:59.208Z,12.60
2019-03-29T04:25:26.487Z,13.15
2019-03-29T04:27:54.209Z,13.80
2019-03-29T04:30:21.546Z,10.05
2019-03-29T04:32:48.879Z,12.10
2019-03-29T04:35:16.167Z,12.35
2019-03-29T04:37:43.440Z,13.65
2019-03-29T04:40:10.818Z,14.00
2019-03-29T04:42:38.083Z,11.45
2019-03-29T04:45:05.948Z,10.68
2019-03-29T04:47:33.219Z,10.50
2019-03-29T04:50:00.501Z,11.18
2019-03-29T04:52:27.795Z,10.23
2019-03-29T04:54:55.080Z,12.07
2019-03-29T04:57:22.378Z,14.55
2019-03-29T04:59:49.655Z,12.20
2019-03-29T05:02:17.795Z,13.38
2019-03-29T05:04:45.173Z,10.58
2019-03-29T05:07:12.571Z,12.37
2019-03-29T05:09:39.840Z,9.43
2019-03-29T05:12:07.136Z,9.20
2019-03-29T05:14:34.422Z,10.78
2019-03-29T05:17:01.680Z,10.35
2019-03-29T05:19:28.978Z,9.70
2019-03-29T05:21:56.480Z,12.33
2019-03-29T05:24:23.781Z,13.83
2019-03-29T05:26:51.113Z,11.38
2019-03-29T05:29:18.433Z,9.33
2019-03-29T05:31:45.780Z,8.93
2019-03-29T05:34:13.103Z,9.75
2019-03-29T05:36:40.401Z,9.83
2019-03-29T05:39:07.668Z,12.68
2019-03-29T05:41:35.031Z,11.57
2019-03-29T05:44:02.378Z,10.15
2019-03-29T05:46:29.665Z,8.90
2019-03-29T05:48:56.923Z,8.38
2019-03-29T05:51:24.210Z,11.25
2019-03-29T05:53:51.488Z,9.25
2019-03-29T05:56:18.830Z,10.20
2019-03-29T05:58:46.334Z,7.85
2019-03-29T06:01:13.594Z,7.90
2019-03-29T06:03:40.874Z,7.58
2019-03-29T06:06:08.218Z,12.30
2019-03-29T06:08:35.607Z,8.38
2019-03-29T06:11:03.563Z,9.98
2019-03-29T06:13:30.845Z,10.35
2019-03-29T06:15:58.103Z,8.90
2019-03-29T06:18:25.379Z,7.87
2019-03-29T06:20:52.644Z,8.73
2019-03-29T06:23:19.910Z,7.70
2019-03-29T06:25:47.176Z,7.72
2019-03-29T06:28:14.531Z,9.75
2019-03-29T06:30:41.827Z,11.33
2019-03-29T06:33:09.087Z,7.65
2019-03-29T06:35:38.137Z,8.70
2019-03-29T06:38:06.242Z,10.00
2019-03-29T06:40:33.524Z,7.17
2019-03-29T06:43:03.080Z,7.92
2019-03-29T06:45:30.336Z,7.83
2019-03-29T06:47:57.636Z,6.15
2019-03-29T06:50:24.913Z,5.83
2019-03-29T06:52:52.241Z,7.70
2019-03-29T06:55:19.512Z,5.95
2019-03-29T06:57:46.782Z,6.58
2019-03-29T07:00:14.213Z,6.97
2019-03-29T07:02:41.793Z,7.35
2019-03-29T07:05:09.078Z,7.78
2019-03-29T07:07:36.785Z,7.80
2019-03-29T07:10:05.528Z,6.53
2019-03-29T07:12:32.806Z,8.58
2019-03-29T07:15:00.101Z,11.20
2019-03-29T07:17:27.478Z,14.47
2019-03-29T07:19:54.769Z,13.10
2019-03-29T07:22:22.043Z,14.13
2019-03-29T07:24:49.342Z,13.32
2019-03-29T07:27:16.620Z,17.30
2019-03-29T07:29:44.046Z,18.55
2019-03-29T07:32:11.321Z,18.77
2019-03-29T07:34:38.616Z,15.10
2019-03-29T07:37:06.088Z,22.70
2019-03-29T07:39:33.462Z,22.73
2019-03-29T07:42:00.736Z,37.25
2019-03-29T07:44:28.613Z,33.73
2019-03-29T07:46:55.954Z,33.95
2019-03-29T07:49:23.238Z,22.87
2019-03-29T07:51:50.510Z,21.50
2019-03-29T07:54:17.795Z,24.30
2019-03-29T07:56:45.146Z,20.27
2019-03-29T07:59:12.410Z,16.07
2019-03-29T08:01:39.698Z,32.33
2019-03-29T08:04:06.966Z,31.33
2019-03-29T08:06:34.237Z,31.55
2019-03-29T08:09:01.599Z,31.48
2019-03-29T08:11:28.893Z,33.58
2019-03-29T08:13:56.188Z,29.52
2019-03-29T08:16:23.480Z,31.23
2019-03-29T08:18:50.817Z,50.43
2019-03-29T08:21:18.081Z,39.40
2019-03-29T08:23:45.428Z,38.73
2019-03-29T08:26:12.689Z,41.60
2019-03-29T08:28:39.968Z,53.15
2019-03-29T08:31:07.242Z,48.02
2019-03-29T08:33:34.531Z,45.33
2019-03-29T08:36:01.797Z,43.00
2019-03-29T08:38:29.166Z,44.63
2019-03-29T08:40:56.441Z,38.23
2019-03-29T08:43:23.724Z,28.25
2019-03-29T08:45:50.994Z,35.90
2019-03-29T08:48:18.603Z,47.17
2019-03-29T08:50:45.864Z,46.08
2019-03-29T08:53:13.198Z,37.85
2019-03-29T08:55:45.963Z,34.67
2019-03-29T08:58:09.670Z,36.45
2019-03-29T09:00:37.109Z,26.85
2019-03-29T09:03:04.371Z,35.43
2019-03-29T09:05:31.718Z,36.50
2019-03-29T09:07:59.064Z,28.62
2019-03-29T09:10:26.713Z,32.75
2019-03-29T09:12:54.084Z,36.03
2019-03-29T09:15:21.373Z,30.25
2019-03-29T09:17:48.710Z,31.62
2019-03-29T09:20:16.077Z,32.08
2019-03-29T09:22:43.414Z,32.05
2019-03-29T09:25:10.759Z,56.15
2019-03-29T09:27:39.114Z,55.40
2019-03-29T09:30:06.800Z,53.50
2019-03-29T09:32:34.277Z,51.28
2019-03-29T09:35:01.557Z,42.27
2019-03-29T09:37:28.846Z,40.85
2019-03-29T09:39:56.101Z,35.00
2019-03-29T09:42:29.399Z,49.33
2019-03-29T09:44:52.603Z,45.17
2019-03-29T09:47:19.912Z,41.70
2019-03-29T09:49:47.278Z,42.75
2019-03-29T09:52:14.683Z,42.05
2019-03-29T09:54:41.958Z,39.30
2019-03-29T09:57:10.105Z,35.35
2019-03-29T09:59:38.853Z,37.33
2019-03-29T10:02:06.116Z,38.23
2019-03-29T10:04:33.382Z,38.67
2019-03-29T10:07:00.725Z,40.10
2019-03-29T10:09:28.039Z,33.28
2019-03-29T10:11:55.367Z,45.55
2019-03-29T10:14:22.648Z,47.90
2019-03-29T10:16:50.022Z,36.28
2019-03-29T10:19:17.309Z,35.30
2019-03-29T10:21:51.474Z,44.40
2019-03-29T10:24:18.755Z,58.42
2019-03-29T10:26:46.031Z,46.60
2019-03-29T10:29:13.318Z,43.10
2019-03-29T10:31:40.594Z,35.58
2019-03-29T10:34:07.881Z,36.10
2019-03-29T10:36:35.250Z,38.30
2019-03-29T10:39:02.754Z,31.15
2019-03-29T10:41:30.069Z,26.65
2019-03-29T10:43:57.402Z,41.60
2019-03-29T10:46:24.714Z,37.58
2019-03-29T10:48:52.169Z,43.68
2019-03-29T10:51:19.455Z,58.95
2019-03-29T10:53:46.718Z,50.58
2019-03-29T10:56:14.022Z,48.55
2019-03-29T10:58:44.722Z,54.48
2019-03-29T11:01:10.304Z,43.33
2019-03-29T11:03:37.610Z,38.75
2019-03-29T11:06:04.907Z,38.83
2019-03-29T11:08:34.331Z,45.73
2019-03-29T11:11:01.666Z,31.12
2019-03-29T11:13:29.018Z,45.67
2019-03-29T11:15:56.301Z,43.50
2019-03-29T11:18:23.586Z,41.53
2019-03-29T11:20:51.789Z,39.20
2019-03-29T11:23:19.064Z,28.90
2019-03-29T11:25:48.602Z,34.88
2019-03-29T11:28:15.383Z,36.98
2019-03-29T11:30:43.145Z,31.87
2019-03-29T11:33:10.720Z,24.47
2019-03-29T11:35:38.084Z,43.23
2019-03-29T11:38:05.455Z,53.52
2019-03-29T11:40:32.914Z,40.78
2019-03-29T11:43:00.216Z,59.65
2019-03-29T11:45:27.486Z,33.50
2019-03-29T11:48:07.477Z,35.20
2019-03-29T11:50:23.890Z,54.40
2019-03-29T11:52:51.243Z,45.92
2019-03-29T11:55:18.585Z,43.23
2019-03-29T11:57:45.858Z,38.90
2019-03-29T12:00:13.408Z,34.18
2019-03-29T12:02:40.705Z,24.30
2019-03-29T12:05:08.064Z,30.80
2019-03-29T12:07:35.423Z,42.40
2019-03-29T12:10:03.883Z,43.45
2019-03-29T12:12:31.173Z,50.03
2019-03-29T12:14:58.434Z,54.50
2019-03-29T12:17:25.718Z,41.33
2019-03-29T12:19:53.006Z,35.55
2019-03-29T12:22:20.291Z,40.75
2019-03-29T12:24:47.581Z,58.85
2019-03-29T12:27:14.897Z,43.92
2019-03-29T12:29:42.269Z,45.08
2019-03-29T12:32:09.647Z,56.95
2019-03-29T12:34:36.982Z,49.45
2019-03-29T12:37:04.314Z,50.00
2019-03-29T12:39:31.646Z,55.95
2019-03-29T12:41:59.013Z,59.48
2019-03-29T12:44:26.288Z,47.50
2019-03-29T12:46:53.578Z,35.33
2019-03-29T12:49:20.850Z,43.45
2019-03-29T12:51:48.140Z,43.68
2019-03-29T12:54:18.388Z,37.90
2019-03-29T12:56:45.676Z,60.85
2019-03-29T12:59:12.960Z,40.78
2019-03-29T13:01:40.607Z,45.55
2019-03-29T13:04:09.801Z,53.00
2019-03-29T13:06:37.362Z,39.30
2019-03-29T13:09:05.446Z,46.20
2019-03-29T13:11:32.751Z,56.30
2019-03-29T13:14:10.015Z,46.98
2019-03-29T13:16:29.068Z,43.48
2019-03-29T13:18:56.334Z,39.53
2019-03-29T13:21:23.758Z,50.10
2019-03-29T13:23:51.035Z,41.20
2019-03-29T13:26:18.322Z,50.48
2019-03-29T13:28:45.594Z,47.90
2019-03-29T13:31:13.283Z,31.95
2019-03-29T13:33:40.637Z,31.40
2019-03-29T13:36:07.979Z,32.48
2019-03-29T13:38:35.393Z,46.53
2019-03-29T13:41:03.101Z,34.73
2019-03-29T13:43:30.358Z,33.42
2019-03-29T13:45:57.733Z,31.25
2019-03-29T13:48:25.015Z,41.23
2019-03-29T13:50:52.338Z,35.38
2019-03-29T13:53:19.626Z,43.98
2019-03-29T13:55:46.899Z,37.50
2019-03-29T13:58:14.187Z,29.85
2019-03-29T14:00:41.462Z,53.38
2019-03-29T14:03:08.765Z,47.17
2019-03-29T14:05:36.248Z,35.60
2019-03-29T14:08:03.551Z,29.92
2019-03-29T14:10:30.978Z,44.70
2019-03-29T14:12:58.293Z,40.92
2019-03-29T14:15:25.564Z,25.30
2019-03-29T14:17:52.839Z,30.80
2019-03-29T14:20:29.956Z,33.88
2019-03-29T14:22:57.218Z,33.65
2019-03-29T14:25:24.517Z,27.67
2019-03-29T14:27:51.814Z,44.98
2019-03-29T14:30:19.166Z,46.48
2019-03-29T14:32:46.506Z,46.73
2019-03-29T14:35:13.870Z,39.55
2019-03-29T14:37:41.151Z,49.27
2019-03-29T14:40:08.799Z,41.23
2019-03-29T14:42:36.270Z,42.88
2019-03-29T14:45:05.087Z,47.88
2019-03-29T14:47:41.177Z,39.23
2019-03-29T14:50:01.373Z,36.08
2019-03-29T14:52:28.661Z,31.73
2019-03-29T14:54:55.970Z,30.75
2019-03-29T14:57:23.265Z,45.33
2019-03-29T14:59:50.700Z,43.73
2019-03-29T15:02:18.086Z,36.20
2019-03-29T15:04:45.466Z,39.40
2019-03-29T15:07:12.971Z,34.92
2019-03-29T15:09:40.241Z,30.55
2019-03-29T15:12:07.620Z,25.32
2019-03-29T15:14:34.931Z,29.37
2019-03-29T15:17:02.219Z,28.00
2019-03-29T15:19:29.523Z,26.85
2019-03-29T15:21:56.798Z,29.95
2019-03-29T15:24:24.086Z,18.45
2019-03-29T15:26:51.388Z,22.40
2019-03-29T15:29:18.691Z,20.80
2019-03-29T15:31:46.092Z,22.75
2019-03-29T15:34:13.379Z,20.97
2019-03-29T15:36:40.673Z,18.60
2019-03-29T15:39:08.322Z,18.07
2019-03-29T15:41:35.657Z,18.02
2019-03-29T15:44:02.968Z,14.70
2019-03-29T15:46:30.279Z,15.93
2019-03-29T15:48:57.579Z,12.55
2019-03-29T15:51:24.882Z,18.50
2019-03-29T15:53:52.193Z,13.88
2019-03-29T15:56:19.455Z,11.68
2019-03-29T15:58:46.783Z,13.75
2019-03-29T16:07:28.379Z,13.98
2019-03-29T16:09:55.073Z,7.65
2019-03-29T16:12:21.391Z,6.45
2019-03-29T16:14:47.902Z,6.12
2019-03-29T16:17:14.090Z,6.97
2019-03-29T16:19:40.221Z,9.10
2019-03-29T16:22:06.380Z,14.73
2019-03-29T16:24:32.572Z,15.48
2019-03-29T16:26:58.709Z,13.85
2019-03-29T16:29:24.899Z,14.03
2019-03-29T16:31:51.122Z,11.40
2019-03-29T16:34:17.584Z,11.28
2019-03-29T16:36:43.824Z,13.25
2019-03-29T16:39:10.033Z,13.80
2019-03-29T16:41:36.246Z,11.95
2019-03-29T16:44:03.283Z,11.53
2019-03-29T16:46:29.680Z,8.68
2019-03-29T16:48:55.877Z,11.50
2019-03-29T16:51:22.225Z,8.05
2019-03-29T16:53:48.393Z,14.05
2019-03-29T16:56:14.875Z,8.98
2019-03-29T16:58:41.388Z,13.83
2019-03-29T17:01:07.957Z,8.28
2019-03-29T17:03:34.477Z,8.25
2019-03-29T17:06:00.966Z,8.25
2019-03-29T17:08:27.275Z,9.18
2019-03-29T17:10:53.486Z,9.58
2019-03-29T17:13:19.663Z,7.83
2019-03-29T17:15:45.770Z,8.50
2019-03-29T17:18:11.980Z,8.80
2019-03-29T17:20:38.090Z,9.25
2019-03-29T17:23:04.228Z,8.00
2019-03-29T17:25:30.786Z,9.43
2019-03-29T17:27:57.079Z,7.03
2019-03-29T17:30:40.116Z,6.87
2019-03-29T17:33:06.398Z,6.05
2019-03-29T17:35:32.532Z,6.33
2019-03-29T17:37:58.661Z,8.00
2019-03-29T17:40:24.749Z,7.75
2019-03-29T17:42:50.871Z,7.12
2019-03-29T17:45:17.196Z,7.10
2019-03-29T17:47:43.412Z,8.95
2019-03-29T17:50:09.917Z,18.98
2019-03-29T17:52:36.063Z,21.95
2019-03-29T17:55:05.339Z,23.98
2019-03-29T17:57:31.562Z,48.48
2019-03-29T17:59:57.904Z,29.18
2019-03-29T18:02:24.304Z,48.42
2019-03-29T18:04:50.514Z,34.40
2019-03-29T18:07:16.736Z,48.78
2019-03-29T18:09:42.859Z,38.88
2019-03-29T18:12:11.363Z,40.50
2019-03-29T18:14:37.013Z,34.35
2019-03-29T18:17:03.140Z,43.60
2019-03-29T18:19:29.361Z,50.95
2019-03-29T18:21:55.455Z,56.48
2019-03-29T18:24:21.578Z,38.45
2019-03-29T18:26:47.680Z,37.58
2019-03-29T18:29:13.900Z,32.40
2019-03-29T18:31:40.007Z,42.88
2019-03-29T18:34:06.122Z,37.93
2019-03-29T18:36:33.057Z,39.15
2019-03-29T18:38:59.370Z,25.55
2019-03-29T18:41:25.467Z,34.33
2019-03-29T18:43:51.561Z,35.60
2019-03-29T18:46:17.689Z,33.25
2019-03-29T18:48:43.786Z,30.12
2019-03-29T18:51:09.895Z,44.25
2019-03-29T18:53:35.990Z,36.17
2019-03-29T18:56:02.389Z,42.27
2019-03-29T18:58:28.614Z,35.20
2019-03-29T19:00:54.818Z,29.80
2019-03-29T19:03:21.042Z,33.90
2019-03-29T19:05:47.299Z,31.57
2019-03-29T19:08:13.596Z,18.07
2019-03-29T19:10:42.348Z,22.13
2019-03-29T19:13:08.519Z,23.57
2019-03-29T19:15:34.616Z,23.22
2019-03-29T19:18:01.404Z,24.95
2019-03-29T19:20:28.381Z,20.92
2019-03-29T19:22:54.782Z,19.62
2019-03-29T19:25:20.880Z,24.02
2019-03-29T19:27:47.009Z,20.88
2019-03-29T19:30:16.396Z,29.45
2019-03-29T19:33:02.434Z,23.15
2019-03-29T19:35:28.558Z,22.52
2019-03-29T19:37:54.785Z,25.97
2019-03-29T19:40:23.252Z,27.20
2019-03-29T19:42:49.445Z,25.65
2019-03-29T19:45:16.657Z,30.55
2019-03-29T19:47:42.928Z,23.98
2019-03-29T19:50:09.967Z,28.30
2019-03-29T19:52:36.308Z,35.38
2019-03-29T19:55:03.871Z,30.05
2019-03-29T19:57:30.363Z,24.80
2019-03-29T19:59:56.617Z,21.20
2019-03-29T20:02:22.866Z,36.65
2019-03-29T20:04:53.173Z,24.43
2019-03-29T20:07:20.431Z,29.27
2019-03-29T20:09:46.734Z,19.50
2019-03-29T20:12:12.846Z,24.90
2019-03-29T20:14:38.959Z,26.68
2019-03-29T20:17:05.088Z,26.90
2019-03-29T20:19:31.273Z,25.65
2019-03-29T20:21:57.401Z,20.37
2019-03-29T20:24:23.496Z,30.00
2019-03-29T20:26:49.625Z,30.75
2019-03-29T20:29:15.740Z,23.18
2019-03-29T20:31:41.852Z,25.10
2019-03-29T20:34:08.026Z,24.15
2019-03-29T20:36:34.194Z,28.35
2019-03-29T20:39:00.310Z,31.57
2019-03-29T20:41:26.392Z,29.12
2019-03-29T20:43:52.521Z,27.73
2019-03-29T20:46:18.611Z,29.05
2019-03-29T20:48:44.745Z,27.32
2019-03-29T20:51:10.834Z,27.58
2019-03-29T20:53:36.936Z,22.73
2019-03-29T20:56:06.279Z,23.77
2019-03-29T20:58:31.070Z,24.63
2019-03-29T21:00:57.188Z,23.90
2019-03-29T21:03:23.318Z,45.30
2019-03-29T21:05:49.410Z,29.52
2019-03-29T21:08:15.531Z,31.35
2019-03-29T21:10:55.051Z,26.68
2019-03-29T21:13:09.743Z,27.00
2019-03-29T21:15:35.869Z,33.10
2019-03-29T21:18:02.087Z,24.20
2019-03-29T21:20:28.182Z,28.87
2019-03-29T21:22:54.301Z,27.45
2019-03-29T21:25:20.519Z,28.35
2019-03-29T21:27:46.706Z,32.67
2019-03-29T21:30:14.523Z,29.02
2019-03-29T21:32:40.733Z,35.70
2019-03-29T21:35:07.671Z,30.68
2019-03-29T21:37:34.667Z,29.00
2019-03-29T21:40:00.800Z,33.05
2019-03-29T21:42:26.894Z,33.42
2019-03-29T21:44:52.989Z,31.02
2019-03-29T21:47:19.098Z,26.95
2019-03-29T21:49:45.262Z,40.15
2019-03-29T21:52:11.473Z,28.85
2019-03-29T21:54:37.670Z,24.82
2019-03-29T21:57:03.839Z,31.17
2019-03-29T21:59:29.946Z,29.98
2019-03-29T22:01:56.075Z,28.92
2019-03-29T22:04:22.178Z,29.27
2019-03-29T22:06:48.407Z,34.13
2019-03-29T22:09:14.894Z,29.35
2019-03-29T22:11:41.026Z,29.85
2019-03-29T22:14:07.204Z,36.33
2019-03-29T22:16:33.314Z,37.15
2019-03-29T22:18:59.438Z,26.60
2019-03-29T22:21:25.572Z,23.90
2019-03-29T22:23:51.835Z,29.98
2019-03-29T22:26:18.043Z,25.82
2019-03-29T22:28:44.163Z,28.92
2019-03-29T22:31:10.260Z,24.52
2019-03-29T22:33:38.741Z,32.50
2019-03-29T22:36:04.870Z,31.45
2019-03-29T22:38:30.992Z,29.50
2019-03-29T22:40:57.091Z,27.60
2019-03-29T22:43:23.211Z,27.00
2019-03-29T22:45:49.306Z,32.10
2019-03-29T22:48:15.450Z,27.22
2019-03-29T22:50:41.655Z,26.12
2019-03-29T22:53:07.760Z,27.07
2019-03-29T22:55:34.295Z,29.23
2019-03-29T22:58:00.387Z,31.10
2019-03-29T23:00:32.431Z,31.77
2019-03-29T23:02:58.597Z,27.98
2019-03-29T23:05:24.825Z,31.87
2019-03-29T23:07:50.939Z,28.35
2019-03-29T23:10:17.341Z,29.00
2019-03-29T23:12:43.458Z,23.27
2019-03-29T23:15:09.860Z,33.53
2019-03-29T23:17:35.971Z,30.10
2019-03-29T23:20:03.743Z,26.97
2019-03-29T23:22:29.879Z,27.55
2019-03-29T23:24:55.982Z,23.47
2019-03-29T23:27:22.196Z,27.93
2019-03-29T23:29:48.290Z,27.07
2019-03-29T23:32:14.401Z,22.58
2019-03-29T23:34:40.519Z,26.62
2019-03-29T23:37:06.628Z,16.45
2019-03-29T23:39:32.746Z,23.98
2019-03-29T23:41:58.845Z,22.15
2019-03-29T23:44:24.957Z,27.85
2019-03-29T23:46:51.087Z,25.68
2019-03-29T23:49:21.392Z,28.67
2019-03-29T23:51:45.240Z,18.10
2019-03-29T23:54:11.366Z,21.02
2019-03-29T23:56:37.462Z,22.13
2019-03-29T23:59:03.683Z,27.85
